Time;durP1;ratioP1;P1;durP2;ratioP2;P2;SDS_P1;SDS_P2;PMS_P1;PMS_P2;Temp;Humidity;BMP_temperature;BMP_pressure;BME280_temperature;BME280_humidity;BME280_pressure;Samples;Min_cycle;Max_cycle;Signal;HPM_P1;HPM_P2
2023/06/18 00:01:59;;;;;;;32.63;29.52;;;13.10;99.90;;;;;;5087120;28;20046;-74
2023/06/18 00:04:26;;;;;;;32.50;29.42;;;13.10;99.90;;;;;;5070469;28;20410;-69
2023/06/18 00:06:56;;;;;;;33.95;30.52;;;13.00;99.90;;;;;;5064250;28;20704;-68
2023/06/18 00:09:23;;;;;;;32.05;29.27;;;13.00;99.90;;;;;;5067790;28;20139;-69
2023/06/18 00:11:50;;;;;;;32.10;29.17;;;12.90;99.90;;;;;;5067208;28;20106;-69
2023/06/18 00:14:18;;;;;;;32.22;29.15;;;13.00;99.90;;;;;;5068062;28;21815;-69
2023/06/18 00:16:44;;;;;;;31.88;28.98;;;12.90;99.90;;;;;;5085648;28;20039;-70
2023/06/18 00:19:11;;;;;;;32.55;29.13;;;12.90;99.90;;;;;;5086158;28;20101;-70
2023/06/18 00:21:38;;;;;;;33.97;30.80;;;13.00;99.90;;;;;;5068242;28;20060;-70
2023/06/18 00:24:05;;;;;;;31.67;28.77;;;13.10;99.90;;;;;;5074310;28;20046;-69
2023/06/18 00:26:32;;;;;;;31.08;28.08;;;13.00;99.90;;;;;;5088313;28;20047;-68
2023/06/18 00:29:00;;;;;;;29.05;26.42;;;12.80;99.90;;;;;;5074844;28;20055;-70
2023/06/18 00:31:27;;;;;;;27.40;24.80;;;12.80;99.90;;;;;;5084444;28;20036;-70
2023/06/18 00:33:55;;;;;;;29.05;26.25;;;12.60;99.90;;;;;;5067068;28;20052;-70
2023/06/18 00:36:26;;;;;;;27.05;24.38;;;12.60;99.90;;;;;;5067801;28;20040;-70
2023/06/18 00:38:53;;;;;;;28.45;25.30;;;12.50;99.90;;;;;;5083293;28;20059;-68
2023/06/18 00:41:19;;;;;;;26.48;23.88;;;12.50;99.90;;;;;;5087570;28;20111;-68
2023/06/18 00:43:46;;;;;;;28.88;25.88;;;12.60;99.90;;;;;;5065315;28;20075;-69
2023/06/18 00:46:13;;;;;;;28.23;25.25;;;12.60;99.90;;;;;;5086880;28;20532;-71
2023/06/18 00:48:40;;;;;;;27.48;24.65;;;12.70;99.90;;;;;;5085342;28;20044;-67
2023/06/18 00:51:07;;;;;;;28.48;25.58;;;12.70;99.90;;;;;;5053153;28;20039;-68
2023/06/18 00:53:34;;;;;;;28.77;26.00;;;12.70;99.90;;;;;;5068659;28;20035;-68
2023/06/18 00:56:01;;;;;;;29.65;26.08;;;12.60;99.90;;;;;;5068170;28;20048;-68
2023/06/18 00:58:28;;;;;;;28.42;25.70;;;12.70;99.90;;;;;;5088140;28;20097;-69
2023/06/18 01:00:54;;;;;;;28.48;25.80;;;12.60;99.90;;;;;;5064278;28;21142;-69
2023/06/18 01:03:23;;;;;;;30.88;27.95;;;12.50;99.90;;;;;;5084944;28;20515;-69
2023/06/18 01:05:59;;;;;;;29.67;27.05;;;12.40;99.90;;;;;;5082060;28;20638;-69
2023/06/18 01:08:28;;;;;;;29.60;26.90;;;12.50;99.90;;;;;;5088608;28;20100;-69
2023/06/18 01:11:05;;;;;;;29.52;26.38;;;12.60;99.90;;;;;;5084006;28;20059;-69
2023/06/18 01:13:40;;;;;;;29.75;27.00;;;12.40;99.90;;;;;;5085637;28;20102;-69
2023/06/18 01:16:08;;;;;;;30.00;27.10;;;12.40;99.90;;;;;;5084316;28;20501;-69
2023/06/18 01:18:46;;;;;;;29.38;26.58;;;12.30;99.90;;;;;;5083694;28;20031;-68
2023/06/18 01:21:18;;;;;;;29.45;26.33;;;12.40;99.90;;;;;;5067060;28;20044;-68
2023/06/18 01:24:16;;;;;;;30.42;27.27;;;12.40;99.90;;;;;;5080493;28;20159;-69
2023/06/18 01:26:44;;;;;;;28.92;25.75;;;12.40;99.90;;;;;;5064452;28;20056;-69
2023/06/18 01:29:12;;;;;;;28.27;25.50;;;12.30;99.90;;;;;;5058155;28;20078;-69
2023/06/18 01:31:42;;;;;;;28.73;25.35;;;12.20;99.90;;;;;;5081746;28;20068;-68
2023/06/18 01:34:09;;;;;;;26.75;23.52;;;12.00;99.90;;;;;;5085712;28;20044;-69
2023/06/18 01:36:40;;;;;;;28.00;24.98;;;11.90;99.90;;;;;;5088052;28;20128;-69
2023/06/18 01:39:37;;;;;;;26.83;24.13;;;11.80;99.90;;;;;;5070150;28;20036;-70
2023/06/18 01:42:16;;;;;;;26.40;23.70;;;11.90;99.90;;;;;;5041437;28;20089;-68
2023/06/18 01:44:47;;;;;;;27.13;24.33;;;11.90;99.90;;;;;;5052034;28;20063;-70
2023/06/18 01:47:18;;;;;;;27.33;24.73;;;11.90;99.90;;;;;;5083904;28;20071;-70
2023/06/18 01:49:46;;;;;;;28.30;25.02;;;12.10;99.90;;;;;;5078981;28;20069;-69
2023/06/18 01:52:16;;;;;;;29.13;26.17;;;12.00;99.90;;;;;;5070594;28;20035;-69
2023/06/18 01:54:46;;;;;;;29.83;26.73;;;11.90;99.90;;;;;;5082338;28;20530;-68
2023/06/18 01:57:14;;;;;;;31.05;28.13;;;11.90;99.90;;;;;;5086090;28;20575;-68
2023/06/18 01:59:44;;;;;;;31.05;28.20;;;11.80;99.90;;;;;;5055561;28;20047;-68
2023/06/18 02:02:15;;;;;;;30.67;27.85;;;11.80;99.90;;;;;;5071758;28;20512;-69
2023/06/18 02:04:43;;;;;;;30.92;27.95;;;11.90;99.90;;;;;;5083141;28;20440;-68
2023/06/18 02:07:12;;;;;;;29.48;26.77;;;12.00;99.90;;;;;;5080464;28;20313;-69
2023/06/18 02:09:42;;;;;;;32.15;28.70;;;12.00;99.90;;;;;;5065033;28;20459;-69
2023/06/18 02:12:10;;;;;;;29.92;27.17;;;11.90;99.90;;;;;;5080379;28;20044;-69
2023/06/18 02:14:37;;;;;;;29.50;26.75;;;11.90;99.90;;;;;;5058102;28;20498;-69
2023/06/18 02:17:05;;;;;;;29.83;26.85;;;12.00;99.90;;;;;;5073159;28;20037;-69
2023/06/18 02:19:32;;;;;;;33.17;29.02;;;12.00;99.90;;;;;;5079741;28;20039;-68
2023/06/18 02:21:59;;;;;;;30.13;27.13;;;12.00;99.90;;;;;;5067251;28;20500;-70
2023/06/18 02:24:26;;;;;;;30.27;27.27;;;11.90;99.90;;;;;;5093161;28;20564;-72
2023/06/18 02:26:52;;;;;;;29.55;26.75;;;11.70;99.90;;;;;;5084889;28;20047;-69
2023/06/18 02:29:20;;;;;;;30.80;27.73;;;11.60;99.90;;;;;;5090774;28;20040;-70
2023/06/18 02:31:46;;;;;;;30.80;27.65;;;11.70;99.90;;;;;;5083221;28;20048;-70
2023/06/18 02:34:15;;;;;;;31.52;28.27;;;11.60;99.90;;;;;;5073310;28;20481;-70
2023/06/18 02:36:42;;;;;;;31.13;28.10;;;11.50;99.90;;;;;;5074305;28;20623;-70
2023/06/18 02:39:09;;;;;;;31.15;27.92;;;11.40;99.90;;;;;;5055827;28;20035;-69
2023/06/18 02:41:36;;;;;;;30.63;27.67;;;11.40;99.90;;;;;;5073711;28;20046;-70
2023/06/18 02:44:04;;;;;;;32.90;29.42;;;11.40;99.90;;;;;;5088340;28;20496;-70
2023/06/18 02:46:30;;;;;;;32.92;29.50;;;11.60;99.90;;;;;;5088995;28;20777;-69
2023/06/18 02:48:58;;;;;;;32.03;29.02;;;11.50;99.90;;;;;;5072326;28;20286;-70
2023/06/18 02:51:25;;;;;;;31.50;28.50;;;11.40;99.90;;;;;;5070379;28;20040;-70
2023/06/18 02:53:52;;;;;;;33.22;29.65;;;11.30;99.90;;;;;;5073597;28;20051;-70
2023/06/18 02:56:19;;;;;;;33.78;30.15;;;11.30;99.90;;;;;;5086342;28;20070;-70
2023/06/18 02:58:46;;;;;;;32.83;29.42;;;11.50;99.90;;;;;;5072504;28;20151;-70
2023/06/18 03:01:17;;;;;;;30.10;26.98;;;11.50;99.90;;;;;;5059981;28;20034;-70
2023/06/18 03:03:44;;;;;;;30.55;27.52;;;11.40;99.90;;;;;;5070338;28;20048;-70
2023/06/18 03:06:11;;;;;;;30.75;27.75;;;11.30;99.90;;;;;;5071560;28;20067;-70
2023/06/18 03:08:37;;;;;;;30.85;27.73;;;11.30;99.90;;;;;;5075574;28;20452;-70
2023/06/18 03:11:04;;;;;;;30.88;27.98;;;11.20;99.90;;;;;;5070919;28;20532;-70
2023/06/18 03:13:31;;;;;;;32.45;29.15;;;11.10;99.90;;;;;;5072757;28;20135;-70
2023/06/18 03:15:59;;;;;;;31.75;28.65;;;11.20;99.90;;;;;;5069382;28;20054;-70
2023/06/18 03:18:29;;;;;;;31.35;28.30;;;11.40;99.90;;;;;;5076324;28;20051;-70
2023/06/18 03:20:56;;;;;;;32.28;28.90;;;11.30;99.90;;;;;;5068999;28;20055;-70
2023/06/18 03:23:23;;;;;;;32.60;28.00;;;11.30;99.90;;;;;;5065152;28;20047;-71
2023/06/18 03:25:50;;;;;;;29.92;26.98;;;11.40;99.90;;;;;;5064398;28;20685;-69
2023/06/18 03:28:22;;;;;;;30.13;27.05;;;11.40;99.90;;;;;;5069576;28;20048;-70
2023/06/18 03:30:49;;;;;;;30.20;26.80;;;11.30;99.90;;;;;;5078947;28;20054;-70
2023/06/18 03:33:17;;;;;;;34.78;27.83;;;11.40;99.90;;;;;;5086387;28;20612;-70
2023/06/18 03:35:46;;;;;;;29.88;26.70;;;11.40;99.90;;;;;;5072424;28;20709;-69
2023/06/18 03:38:17;;;;;;;29.08;25.92;;;11.50;99.90;;;;;;5061306;28;20633;-70
2023/06/18 03:40:44;;;;;;;31.88;28.48;;;11.50;99.90;;;;;;5069369;28;20051;-68
2023/06/18 03:43:13;;;;;;;29.60;26.48;;;11.60;99.90;;;;;;5074963;28;20114;-69
2023/06/18 03:45:40;;;;;;;28.42;25.30;;;11.70;99.90;;;;;;5057534;28;20035;-69
2023/06/18 03:48:07;;;;;;;30.00;26.13;;;11.60;99.90;;;;;;5073590;28;20048;-69
2023/06/18 03:50:42;;;;;;;28.33;24.53;;;11.60;99.90;;;;;;5066426;28;20051;-69
2023/06/18 03:53:09;;;;;;;30.42;26.55;;;11.70;99.90;;;;;;5058063;28;20301;-70
2023/06/18 03:55:37;;;;;;;26.70;23.83;;;11.70;99.90;;;;;;5061291;28;20039;-69
2023/06/18 03:58:06;;;;;;;27.23;24.52;;;11.60;99.90;;;;;;5069967;28;20050;-71
2023/06/18 04:00:34;;;;;;;27.00;24.13;;;11.70;99.90;;;;;;5068585;28;20043;-68
2023/06/18 04:03:01;;;;;;;26.73;23.92;;;11.60;99.90;;;;;;5069176;28;20555;-70
2023/06/18 04:05:28;;;;;;;26.17;23.50;;;11.70;99.90;;;;;;5057253;28;20135;-70
2023/06/18 04:07:55;;;;;;;26.70;23.95;;;11.70;99.90;;;;;;5067788;28;20531;-71
2023/06/18 04:10:23;;;;;;;27.05;24.25;;;11.70;99.90;;;;;;5068637;28;20589;-71
2023/06/18 04:12:50;;;;;;;28.75;26.05;;;11.70;99.90;;;;;;5069717;28;20074;-68
2023/06/18 04:15:16;;;;;;;30.40;27.25;;;11.70;99.90;;;;;;5071357;28;20059;-68
2023/06/18 04:17:44;;;;;;;28.83;26.13;;;11.70;99.90;;;;;;5061117;28;20051;-69
2023/06/18 04:20:14;;;;;;;31.05;28.02;;;11.70;99.90;;;;;;5073430;28;20123;-68
2023/06/18 04:22:42;;;;;;;30.88;27.77;;;11.80;99.90;;;;;;5073109;28;20183;-69
2023/06/18 04:25:10;;;;;;;29.00;26.13;;;11.90;99.90;;;;;;5072976;28;20051;-69
2023/06/18 04:27:39;;;;;;;28.58;25.95;;;11.90;99.90;;;;;;5073087;28;20135;-69
2023/06/18 04:30:07;;;;;;;29.60;26.50;;;12.10;99.90;;;;;;5073117;28;21318;-69
2023/06/18 04:32:34;;;;;;;30.17;27.23;;;12.20;99.90;;;;;;5075327;28;20050;-69
2023/06/18 04:35:02;;;;;;;27.95;25.55;;;12.60;99.90;;;;;;5063387;28;20047;-69
2023/06/18 04:37:31;;;;;;;29.80;27.05;;;12.90;99.90;;;;;;5067514;28;20048;-69
2023/06/18 04:39:58;;;;;;;30.83;27.67;;;13.30;99.90;;;;;;5064202;28;20065;-69
2023/06/18 04:42:25;;;;;;;32.50;29.50;;;13.50;99.90;;;;;;5063816;28;20471;-68
2023/06/18 04:44:52;;;;;;;33.72;30.70;;;13.80;99.90;;;;;;5071146;28;20677;-69
2023/06/18 04:47:19;;;;;;;33.70;30.77;;;14.50;99.90;;;;;;5068474;28;20044;-70
2023/06/18 04:49:46;;;;;;;35.20;32.30;;;15.00;99.90;;;;;;5056039;28;20044;-69
2023/06/18 04:52:14;;;;;;;35.20;32.17;;;15.30;99.90;;;;;;5070681;28;20047;-69
2023/06/18 04:54:44;;;;;;;34.08;31.35;;;15.70;99.90;;;;;;5070682;28;20032;-70
2023/06/18 04:57:11;;;;;;;35.30;32.47;;;16.00;99.90;;;;;;5068706;28;20513;-69
2023/06/18 04:59:38;;;;;;;35.55;32.55;;;16.10;99.90;;;;;;5065822;28;20453;-68
2023/06/18 05:02:06;;;;;;;34.50;31.70;;;16.30;99.90;;;;;;5065119;28;20040;-70
2023/06/18 05:04:33;;;;;;;35.85;33.05;;;16.50;99.90;;;;;;5085366;28;20510;-69
2023/06/18 05:07:02;;;;;;;35.95;33.05;;;16.70;99.90;;;;;;5066234;28;20130;-70
2023/06/18 05:09:30;;;;;;;35.92;33.13;;;17.10;99.90;;;;;;5062699;28;20031;-69
2023/06/18 05:11:57;;;;;;;37.75;34.65;;;17.40;99.90;;;;;;5051076;28;20138;-70
2023/06/18 05:14:24;;;;;;;38.13;34.97;;;17.60;99.90;;;;;;5068743;28;20154;-70
2023/06/18 05:16:51;;;;;;;37.45;34.45;;;17.80;99.90;;;;;;5062918;28;20658;-71
2023/06/18 05:19:18;;;;;;;36.67;33.92;;;17.90;99.90;;;;;;5069849;28;20043;-70
2023/06/18 05:21:44;;;;;;;36.15;33.40;;;18.00;99.90;;;;;;5071250;28;20035;-70
2023/06/18 05:24:11;;;;;;;35.95;33.22;;;18.10;99.90;;;;;;5072347;28;21809;-70
2023/06/18 05:26:38;;;;;;;38.55;35.50;;;18.40;99.90;;;;;;5067972;28;20051;-70
2023/06/18 05:29:05;;;;;;;36.15;33.47;;;18.80;99.90;;;;;;5070093;28;20039;-70
2023/06/18 05:31:31;;;;;;;35.95;33.28;;;19.10;99.90;;;;;;5068292;28;20134;-70
2023/06/18 05:34:01;;;;;;;38.38;35.28;;;19.50;99.90;;;;;;5042458;28;20521;-70
2023/06/18 05:36:29;;;;;;;38.85;35.63;;;19.70;99.90;;;;;;5069032;28;20119;-70
2023/06/18 05:38:59;;;;;;;38.90;35.80;;;19.90;99.90;;;;;;5083729;28;20044;-70
2023/06/18 05:41:28;;;;;;;39.10;35.92;;;20.20;99.90;;;;;;5068386;28;20122;-68
2023/06/18 05:43:55;;;;;;;38.55;35.60;;;20.40;99.90;;;;;;5071990;28;20027;-68
2023/06/18 05:46:23;;;;;;;41.47;38.47;;;20.70;99.90;;;;;;5064575;28;20039;-68
2023/06/18 05:48:50;;;;;;;40.20;37.20;;;20.90;99.90;;;;;;5048220;28;20097;-67
2023/06/18 05:51:18;;;;;;;41.47;38.25;;;21.10;99.90;;;;;;5067802;28;20133;-69
2023/06/18 05:53:45;;;;;;;40.70;37.72;;;21.30;99.90;;;;;;5070576;28;20047;-68
2023/06/18 05:56:14;;;;;;;40.42;37.53;;;21.60;99.90;;;;;;5070397;28;20650;-68
2023/06/18 05:58:41;;;;;;;41.47;38.67;;;22.00;99.90;;;;;;5088048;28;20044;-69
2023/06/18 06:01:08;;;;;;;40.33;37.35;;;22.30;99.90;;;;;;5071261;28;20047;-69
2023/06/18 06:03:35;;;;;;;41.08;38.20;;;22.50;99.90;;;;;;5068156;28;20063;-68
2023/06/18 06:06:03;;;;;;;41.13;38.33;;;22.70;99.90;;;;;;5071122;28;20043;-68
2023/06/18 06:08:32;;;;;;;41.97;39.13;;;22.70;99.90;;;;;;5073843;28;20848;-69
2023/06/18 06:11:01;;;;;;;42.20;39.25;;;22.90;99.90;;;;;;5071827;28;20139;-68
2023/06/18 06:13:29;;;;;;;43.70;40.38;;;23.20;99.90;;;;;;5071104;28;20130;-69
2023/06/18 06:15:58;;;;;;;42.13;39.20;;;23.30;99.90;;;;;;5073904;28;20047;-68
2023/06/18 06:18:26;;;;;;;42.92;39.88;;;23.30;99.90;;;;;;5076566;28;20032;-68
2023/06/18 06:20:53;;;;;;;42.83;39.92;;;23.40;99.90;;;;;;5068741;28;20069;-68
2023/06/18 06:23:20;;;;;;;42.85;39.78;;;23.50;99.90;;;;;;5076435;28;20131;-69
2023/06/18 06:25:47;;;;;;;42.13;39.10;;;23.40;99.90;;;;;;5075320;28;20047;-68
2023/06/18 06:28:15;;;;;;;44.13;41.13;;;23.40;99.90;;;;;;5090967;28;20629;-69
2023/06/18 06:30:42;;;;;;;43.13;40.28;;;23.70;99.90;;;;;;5068682;28;20533;-69
2023/06/18 06:33:09;;;;;;;42.28;39.53;;;23.80;99.90;;;;;;5067703;28;20048;-68
2023/06/18 06:35:38;;;;;;;42.67;39.58;;;23.90;99.90;;;;;;5074488;28;20050;-69
2023/06/18 06:38:06;;;;;;;44.08;41.15;;;23.90;99.90;;;;;;5074811;28;20040;-70
2023/06/18 06:40:34;;;;;;;42.45;39.63;;;23.90;99.90;;;;;;5067108;28;20060;-70
2023/06/18 06:43:01;;;;;;;43.42;40.47;;;24.00;99.90;;;;;;5055643;28;20044;-70
2023/06/18 06:45:31;;;;;;;44.33;41.40;;;24.30;99.90;;;;;;5069245;28;20051;-70
2023/06/18 06:48:10;;;;;;;44.20;41.22;;;24.10;99.90;;;;;;5067863;28;20040;-70
2023/06/18 06:50:37;;;;;;;47.60;44.47;;;24.20;99.90;;;;;;5068619;28;20837;-70
2023/06/18 06:53:13;;;;;;;46.35;43.42;;;24.30;99.90;;;;;;5076022;28;20524;-70
2023/06/18 06:55:40;;;;;;;46.90;43.83;;;24.40;99.90;;;;;;5096590;28;20433;-69
2023/06/18 06:58:10;;;;;;;46.10;43.03;;;24.50;99.90;;;;;;5077475;28;20131;-68
2023/06/18 07:00:37;;;;;;;47.28;44.22;;;24.70;99.90;;;;;;5076759;28;20040;-70
2023/06/18 07:03:04;;;;;;;46.10;42.90;;;25.00;99.90;;;;;;5084820;28;20051;-71
2023/06/18 07:05:30;;;;;;;45.03;42.08;;;25.00;99.90;;;;;;5073211;28;20113;-70
2023/06/18 07:07:57;;;;;;;46.45;43.55;;;25.20;99.90;;;;;;5084297;28;20048;-70
2023/06/18 07:10:24;;;;;;;44.65;41.85;;;25.40;99.90;;;;;;5089144;28;20067;-69
2023/06/18 07:12:51;;;;;;;48.17;45.08;;;25.50;99.90;;;;;;5086881;28;20507;-70
2023/06/18 07:15:17;;;;;;;46.35;43.47;;;25.80;99.90;;;;;;5070759;28;20047;-69
2023/06/18 07:17:44;;;;;;;46.80;43.75;;;25.90;99.90;;;;;;5075687;28;20036;-70
2023/06/18 07:20:11;;;;;;;48.17;45.08;;;26.00;99.90;;;;;;5073832;28;20042;-70
2023/06/18 07:22:38;;;;;;;47.50;44.28;;;25.20;99.90;;;;;;5067424;28;20120;-69
2023/06/18 07:25:05;;;;;;;49.20;46.00;;;25.40;99.90;;;;;;5072657;28;20035;-69
2023/06/18 07:27:33;;;;;;;48.78;45.95;;;25.60;99.90;;;;;;5071762;28;20072;-70
2023/06/18 07:30:00;;;;;;;49.63;46.63;;;26.00;99.90;;;;;;5072516;28;20394;-70
2023/06/18 07:32:27;;;;;;;49.20;46.15;;;26.40;99.90;;;;;;5085215;28;20131;-69
2023/06/18 07:34:54;;;;;;;49.20;46.15;;;26.00;99.90;;;;;;5085671;28;20073;-69
2023/06/18 07:37:21;;;;;;;50.22;47.10;;;26.40;99.90;;;;;;5084066;28;20040;-69
2023/06/18 07:39:48;;;;;;;48.15;45.25;;;26.60;99.90;;;;;;5086516;28;20048;-69
2023/06/18 07:42:14;;;;;;;51.00;47.67;;;26.60;99.90;;;;;;5077831;28;20645;-69
2023/06/18 07:44:41;;;;;;;51.95;48.60;;;26.90;99.90;;;;;;5091892;28;20582;-71
2023/06/18 07:47:08;;;;;;;49.80;46.90;;;27.20;99.90;;;;;;5079562;28;20083;-69
2023/06/18 07:49:35;;;;;;;51.72;48.42;;;27.30;99.90;;;;;;5090128;28;20047;-69
2023/06/18 07:52:02;;;;;;;50.28;46.95;;;27.50;99.90;;;;;;5085778;28;20073;-70
2023/06/18 07:54:29;;;;;;;51.80;48.70;;;27.60;99.90;;;;;;5083324;28;20032;-70
2023/06/18 07:56:55;;;;;;;51.95;48.78;;;27.30;99.90;;;;;;5088271;28;20050;-68
2023/06/18 07:59:22;;;;;;;50.33;47.53;;;27.50;99.90;;;;;;5071464;28;20151;-68
2023/06/18 08:01:50;;;;;;;52.65;49.67;;;27.50;99.90;;;;;;5086754;28;20035;-71
2023/06/18 08:04:16;;;;;;;52.50;49.58;;;27.60;99.90;;;;;;5087934;28;20101;-71
2023/06/18 08:06:43;;;;;;;55.78;52.65;;;27.70;99.90;;;;;;5091137;28;20537;-70
2023/06/18 08:09:10;;;;;;;59.90;56.33;;;28.20;99.90;;;;;;5089032;28;20046;-71
2023/06/18 08:11:37;;;;;;;58.72;55.42;;;28.00;99.90;;;;;;5083671;28;20048;-70
2023/06/18 08:14:04;;;;;;;56.17;53.17;;;27.50;99.90;;;;;;5085179;28;20051;-69
2023/06/18 08:16:30;;;;;;;57.00;53.83;;;27.70;99.90;;;;;;5087893;28;20085;-70
2023/06/18 08:18:58;;;;;;;57.40;54.20;;;27.80;99.90;;;;;;5088528;28;20027;-68
2023/06/18 08:21:25;;;;;;;59.33;56.08;;;27.70;99.90;;;;;;5065039;28;20626;-69
2023/06/18 08:23:52;;;;;;;58.33;55.13;;;28.00;99.90;;;;;;5069004;28;20045;-68
2023/06/18 08:26:21;;;;;;;59.92;56.45;;;27.70;99.90;;;;;;5068011;28;20525;-68
2023/06/18 08:28:47;;;;;;;59.47;56.15;;;27.20;99.90;;;;;;5090320;28;20052;-69
2023/06/18 08:31:14;;;;;;;55.25;52.00;;;26.80;99.90;;;;;;5082760;28;20052;-69
2023/06/18 08:33:41;;;;;;;59.15;55.85;;;26.30;99.90;;;;;;5053567;28;20044;-71
2023/06/18 08:36:08;;;;;;;59.50;56.10;;;26.80;99.40;;;;;;5067355;28;20093;-72
2023/06/18 08:38:35;;;;;;;57.63;54.53;;;27.30;98.80;;;;;;5084502;28;20477;-71
2023/06/18 08:41:02;;;;;;;56.65;53.55;;;28.00;98.80;;;;;;5085148;28;20125;-69
2023/06/18 08:43:32;;;;;;;58.47;55.17;;;28.40;95.90;;;;;;5084859;28;20035;-70
2023/06/18 08:46:11;;;;;;;58.88;55.60;;;28.80;95.40;;;;;;5070629;28;20040;-69
2023/06/18 08:48:43;;;;;;;59.17;55.80;;;28.60;94.60;;;;;;5087648;28;20707;-69
2023/06/18 08:51:11;;;;;;;55.63;52.42;;;28.80;94.50;;;;;;5085217;28;20112;-69
2023/06/18 08:53:46;;;;;;;58.47;54.97;;;28.70;95.10;;;;;;5097467;28;20035;-69
2023/06/18 08:56:15;;;;;;;57.42;54.40;;;29.30;96.30;;;;;;5073500;28;20044;-69
2023/06/18 08:58:50;;;;;;;59.10;55.88;;;29.50;95.10;;;;;;5093616;28;20044;-68
2023/06/18 09:01:18;;;;;;;60.13;56.92;;;29.20;95.50;;;;;;5085541;28;20036;-70
2023/06/18 09:03:45;;;;;;;59.80;56.40;;;29.40;94.90;;;;;;5065057;28;20039;-69
2023/06/18 09:06:12;;;;;;;58.10;54.88;;;29.60;94.20;;;;;;5069984;28;20056;-68
2023/06/18 09:08:40;;;;;;;46.47;43.88;;;29.80;94.00;;;;;;5066862;28;20048;-71
2023/06/18 09:11:07;;;;;;;57.83;54.72;;;29.40;93.80;;;;;;5068261;28;20071;-70
2023/06/18 09:13:38;;;;;;;57.80;54.60;;;29.60;93.90;;;;;;5065890;28;20047;-69
2023/06/18 09:16:05;;;;;;;57.67;54.45;;;29.70;94.00;;;;;;5077890;28;20717;-70
2023/06/18 09:18:32;;;;;;;57.28;54.10;;;29.70;93.70;;;;;;5086512;28;20047;-69
2023/06/18 09:20:59;;;;;;;60.53;57.08;;;29.80;92.30;;;;;;5099034;28;20039;-70
2023/06/18 09:23:26;;;;;;;45.50;42.80;;;29.40;90.40;;;;;;5101172;28;20566;-68
2023/06/18 09:25:54;;;;;;;58.47;55.25;;;29.00;92.20;;;;;;5100772;28;20048;-69
2023/06/18 09:28:21;;;;;;;57.72;54.58;;;29.10;91.70;;;;;;5080230;28;20067;-70
2023/06/18 09:30:59;;;;;;;59.53;56.05;;;29.30;91.60;;;;;;5085060;28;20063;-69
2023/06/18 09:33:34;;;;;;;58.83;55.63;;;29.50;92.50;;;;;;5084268;28;20117;-70
2023/06/18 09:36:05;;;;;;;60.95;57.65;;;29.70;90.30;;;;;;5084834;28;20537;-70
2023/06/18 09:38:37;;;;;;;58.17;54.63;;;29.90;90.90;;;;;;5081129;28;20410;-71
2023/06/18 09:41:11;;;;;;;56.35;53.05;;;29.60;91.10;;;;;;5066762;28;20036;-69
2023/06/18 09:43:40;;;;;;;55.38;52.15;;;29.40;91.20;;;;;;5079811;28;20097;-69
2023/06/18 09:46:08;;;;;;;60.35;57.05;;;29.50;91.00;;;;;;5063712;28;20051;-70
2023/06/18 09:48:38;;;;;;;63.13;59.47;;;29.80;89.40;;;;;;5051207;28;20040;-71
2023/06/18 09:51:05;;;;;;;61.92;58.50;;;30.10;89.70;;;;;;5069553;28;20039;-71
2023/06/18 09:53:34;;;;;;;60.80;57.50;;;30.10;88.90;;;;;;5069632;28;20181;-72
2023/06/18 09:56:11;;;;;;;62.85;59.28;;;30.20;86.00;;;;;;5065437;28;20577;-71
2023/06/18 09:58:49;;;;;;;64.28;60.88;;;30.30;86.40;;;;;;5083396;28;20044;-71
2023/06/18 10:01:18;;;;;;;63.80;60.33;;;30.30;86.50;;;;;;5064965;28;20163;-71
2023/06/18 10:03:46;;;;;;;60.58;57.28;;;30.30;85.90;;;;;;5051573;28;20052;-72
2023/06/18 10:06:17;;;;;;;62.60;59.05;;;30.30;88.70;;;;;;5067417;28;20067;-71
2023/06/18 10:08:56;;;;;;;62.55;59.05;;;29.70;88.40;;;;;;5067426;28;20044;-70
2023/06/18 10:11:25;;;;;;;60.92;57.53;;;28.90;89.50;;;;;;5084041;28;20040;-70
2023/06/18 10:14:00;;;;;;;61.83;58.50;;;28.80;89.50;;;;;;5086585;28;20036;-72
2023/06/18 10:16:32;;;;;;;61.78;58.47;;;28.80;89.80;;;;;;5084280;28;20036;-71
2023/06/18 10:19:31;;;;;;;66.50;62.85;;;28.80;87.70;;;;;;5079433;28;20116;-68
2023/06/18 10:22:05;;;;;;;66.03;62.53;;;28.30;90.00;;;;;;5087495;28;20439;-70
2023/06/18 10:24:37;;;;;;;65.07;61.47;;;27.70;90.10;;;;;;5082384;28;20079;-72
2023/06/18 10:27:06;;;;;;;60.13;56.83;;;27.50;89.40;;;;;;5083651;28;20039;-72
2023/06/18 10:29:33;;;;;;;62.40;59.08;;;28.10;90.90;;;;;;5082861;28;20907;-71
2023/06/18 10:32:04;;;;;;;65.43;61.83;;;28.50;90.30;;;;;;5086678;28;20050;-69
2023/06/18 10:34:34;;;;;;;61.35;58.03;;;28.20;90.00;;;;;;5082587;28;20043;-69
2023/06/18 10:37:02;;;;;;;62.95;59.35;;;28.20;91.00;;;;;;5078319;28;20039;-70
2023/06/18 10:39:29;;;;;;;61.72;58.40;;;28.20;90.50;;;;;;5067428;28;20044;-71
2023/06/18 10:42:11;;;;;;;60.50;57.20;;;28.50;90.20;;;;;;5055124;28;20046;-71
2023/06/18 10:44:54;;;;;;;62.95;59.60;;;28.80;90.60;;;;;;5073782;28;20066;-69
2023/06/18 10:47:23;;;;;;;63.70;60.22;;;29.20;90.50;;;;;;5068153;28;20047;-70
2023/06/18 10:50:02;;;;;;;67.35;63.65;;;29.40;87.40;;;;;;5082834;28;20104;-71
2023/06/18 10:52:33;;;;;;;65.40;61.90;;;29.50;86.50;;;;;;5064519;28;20151;-71
2023/06/18 10:55:18;;;;;;;55.45;52.33;;;29.50;84.40;;;;;;5089999;27;20043;-71
2023/06/18 10:58:00;;;;;;;64.47;61.03;;;29.50;83.40;;;;;;5087479;28;20052;-70
2023/06/18 11:00:36;;;;;;;67.10;63.53;;;29.50;88.70;;;;;;5088171;27;20129;-69
2023/06/18 11:03:14;;;;;;;63.22;59.78;;;29.50;86.40;;;;;;5090035;28;20040;-69
2023/06/18 11:05:47;;;;;;;64.82;61.22;;;29.80;85.50;;;;;;5090142;27;20635;-70
2023/06/18 11:08:16;;;;;;;66.30;62.45;;;30.10;85.70;;;;;;5078700;28;20036;-70
2023/06/18 11:10:49;;;;;;;66.00;62.40;;;30.10;88.70;;;;;;5089481;27;20058;-72
2023/06/18 11:13:17;;;;;;;68.30;64.68;;;30.20;88.10;;;;;;5083592;28;20044;-69
2023/06/18 11:15:57;;;;;;;69.45;65.75;;;30.30;86.90;;;;;;5087141;28;20051;-71
2023/06/18 11:18:26;;;;;;;66.80;63.17;;;30.40;86.60;;;;;;5083015;28;20040;-69
2023/06/18 11:20:55;;;;;;;67.65;64.05;;;30.10;86.60;;;;;;5086020;28;20493;-71
2023/06/18 11:23:26;;;;;;;65.35;61.75;;;29.10;87.50;;;;;;5091014;28;20105;-71
2023/06/18 11:25:53;;;;;;;67.43;63.70;;;29.00;88.00;;;;;;5072450;28;20048;-71
2023/06/18 11:28:22;;;;;;;64.38;61.08;;;29.00;87.20;;;;;;5087385;28;20126;-70
2023/06/18 11:31:03;;;;;;;68.57;64.97;;;29.40;85.50;;;;;;5067714;28;20695;-71
2023/06/18 11:33:30;;;;;;;65.60;62.20;;;29.60;82.30;;;;;;5068315;28;20090;-71
2023/06/18 11:36:11;;;;;;;66.90;63.40;;;28.90;84.70;;;;;;5081451;28;20459;-71
2023/06/18 11:38:40;;;;;;;70.50;66.80;;;27.80;86.20;;;;;;5092084;28;20100;-71
2023/06/18 11:41:07;;;;;;;62.25;59.05;;;28.50;87.60;;;;;;5068435;28;20066;-71
2023/06/18 11:43:50;;;;;;;64.80;61.30;;;29.30;90.10;;;;;;5072706;28;20115;-71
2023/06/18 11:46:37;;;;;;;64.70;61.30;;;29.70;83.50;;;;;;5073232;28;20702;-70
2023/06/18 11:49:13;;;;;;;65.80;62.15;;;29.80;82.70;;;;;;5089773;28;20046;-71
2023/06/18 11:51:39;;;;;;;70.10;66.30;;;29.60;82.50;;;;;;5083408;28;20047;-71
2023/06/18 11:54:06;;;;;;;66.30;62.70;;;29.10;82.30;;;;;;5067472;28;20131;-70
2023/06/18 11:56:33;;;;;;;67.10;63.70;;;29.10;85.00;;;;;;5048851;28;20144;-71
2023/06/18 11:59:02;;;;;;;63.10;59.75;;;29.50;86.20;;;;;;5087110;28;20570;-70
2023/06/18 12:01:31;;;;;;;64.57;61.17;;;30.00;79.00;;;;;;5068856;28;20036;-70
2023/06/18 12:04:06;;;;;;;65.13;61.72;;;30.10;79.10;;;;;;5084661;28;20130;-70
2023/06/18 12:06:35;;;;;;;66.80;63.30;;;30.30;81.10;;;;;;5083393;28;20036;-70
2023/06/18 12:09:10;;;;;;;64.05;60.65;;;30.40;78.40;;;;;;5082440;28;20044;-71
2023/06/18 12:12:01;;;;;;;68.55;65.03;;;30.20;78.60;;;;;;5073323;28;20036;-70
2023/06/18 12:14:40;;;;;;;65.68;62.20;;;30.40;82.30;;;;;;5068762;28;20119;-70
2023/06/18 12:17:15;;;;;;;64.20;60.90;;;30.30;81.80;;;;;;5086924;28;20036;-69
2023/06/18 12:19:47;;;;;;;65.10;61.53;;;30.20;81.30;;;;;;5088182;28;20043;-68
2023/06/18 12:22:14;;;;;;;64.30;61.00;;;30.00;82.30;;;;;;5069856;28;20039;-70
2023/06/18 12:24:41;;;;;;;61.03;57.88;;;30.30;83.30;;;;;;5085567;28;20064;-70
2023/06/18 12:27:09;;;;;;;63.42;60.03;;;30.50;85.00;;;;;;5080842;28;20040;-69
2023/06/18 12:29:40;;;;;;;62.85;59.55;;;30.10;82.30;;;;;;5083366;28;20382;-69
2023/06/18 12:32:08;;;;;;;61.33;58.13;;;29.80;84.30;;;;;;5068249;28;20528;-69
2023/06/18 12:34:35;;;;;;;65.85;62.33;;;29.50;84.40;;;;;;5084491;28;20096;-69
2023/06/18 12:37:03;;;;;;;63.13;59.63;;;29.10;85.10;;;;;;5066642;28;20079;-71
2023/06/18 12:39:29;;;;;;;65.72;62.22;;;29.40;84.00;;;;;;5069224;28;20040;-70